Time;durP1;ratioP1;P1;durP2;ratioP2;P2;SDS_P1;SDS_P2;PMS_P1;PMS_P2;Temp;Humidity;BMP_temperature;BMP_pressure;BME280_temperature;BME280_humidity;BME280_pressure;Samples;Min_cycle;Max_cycle;Signal;HPM_P1;HPM_P2
2021/07/25 00:02:39;;;;;;;18.80;10.57;;;;;;;;;;6283723;22;20268;-87
2021/07/25 00:05:44;;;;;;;18.13;10.18;;;;;;;;;;6266549;22;20494;-88
2021/07/25 00:08:49;;;;;;;22.27;9.73;;;;;;;;;;6268071;22;20181;-86
2021/07/25 00:11:55;;;;;;;20.95;10.27;;;;;;;;;;6285408;22;20177;-86
2021/07/25 00:15:02;;;;;;;23.10;10.07;;;;;;;;;;6266105;22;20177;-87
2021/07/25 00:18:07;;;;;;;17.67;8.93;;;;;;;;;;6266392;22;20165;-87
2021/07/25 00:21:12;;;;;;;16.50;8.80;;;;;;;;;;6264823;22;20192;-88
2021/07/25 00:24:22;;;;;;;14.65;8.25;;;;;;;;;;6283577;22;20174;-88
2021/07/25 00:27:29;;;;;;;20.27;8.55;;;;;;;;;;6283007;22;20177;-88
2021/07/25 00:30:35;;;;;;;13.93;7.65;;;;;;;;;;6283249;22;20196;-87
2021/07/25 00:33:40;;;;;;;15.13;8.13;;;;;;;;;;6283769;22;20620;-88
2021/07/25 00:36:45;;;;;;;14.27;7.75;;;;;;;;;;6264803;22;20200;-86
2021/07/25 00:39:50;;;;;;;17.73;7.40;;;;;;;;;;6282038;22;20165;-87
2021/07/25 00:42:55;;;;;;;12.43;7.07;;;;;;;;;;6284093;22;20566;-88
2021/07/25 00:46:02;;;;;;;15.90;8.02;;;;;;;;;;6283565;22;20178;-89
2021/07/25 00:49:07;;;;;;;14.00;7.20;;;;;;;;;;6282207;22;20169;-88
2021/07/25 00:52:12;;;;;;;15.32;8.40;;;;;;;;;;6282540;22;20301;-88
2021/07/25 00:55:17;;;;;;;17.88;8.20;;;;;;;;;;6282841;22;20192;-87
2021/07/25 00:58:22;;;;;;;16.55;8.27;;;;;;;;;;6283111;22;20264;-88
2021/07/25 01:01:28;;;;;;;15.98;7.47;;;;;;;;;;6265294;22;20193;-87
2021/07/25 01:04:38;;;;;;;16.77;7.80;;;;;;;;;;6285153;22;20166;-88
2021/07/25 01:07:49;;;;;;;16.45;8.13;;;;;;;;;;6282786;22;20166;-87
2021/07/25 01:10:54;;;;;;;15.00;8.05;;;;;;;;;;6281902;22;20170;-84
2021/07/25 01:14:00;;;;;;;13.13;7.75;;;;;;;;;;6283482;22;20272;-87
2021/07/25 01:17:20;;;;;;;16.80;7.90;;;;;;;;;;6282835;22;20169;-87
2021/07/25 01:20:27;;;;;;;15.02;7.85;;;;;;;;;;6285065;22;20177;-87
2021/07/25 01:23:32;;;;;;;15.60;7.80;;;;;;;;;;6283986;22;20169;-88
2021/07/25 01:26:40;;;;;;;16.02;7.88;;;;;;;;;;6284778;22;20242;-89
2021/07/25 01:29:46;;;;;;;17.17;7.32;;;;;;;;;;6286487;22;20209;-88
2021/07/25 01:32:52;;;;;;;14.88;8.07;;;;;;;;;;6265935;22;20288;-87
2021/07/25 01:35:59;;;;;;;15.57;7.30;;;;;;;;;;6282026;22;20169;-86
2021/07/25 01:39:05;;;;;;;19.10;8.57;;;;;;;;;;6281877;22;20181;-87
2021/07/25 01:42:10;;;;;;;21.10;7.97;;;;;;;;;;6283224;22;20193;-87
2021/07/25 01:45:15;;;;;;;15.90;8.85;;;;;;;;;;6265154;22;20166;-87
2021/07/25 01:48:20;;;;;;;16.45;8.60;;;;;;;;;;6282325;22;20181;-89
2021/07/25 01:51:27;;;;;;;18.42;8.27;;;;;;;;;;6281683;22;20169;-88
2021/07/25 01:54:32;;;;;;;14.35;9.07;;;;;;;;;;6281387;22;20301;-88
2021/07/25 01:57:36;;;;;;;14.98;8.32;;;;;;;;;;6282701;22;20281;-87
2021/07/25 02:00:41;;;;;;;17.75;8.48;;;;;;;;;;6263249;22;20296;-86
2021/07/25 02:03:46;;;;;;;15.80;8.20;;;;;;;;;;6264841;22;20166;-87
2021/07/25 02:06:53;;;;;;;21.42;8.32;;;;;;;;;;6283689;22;20720;-88
2021/07/25 02:09:58;;;;;;;16.38;7.53;;;;;;;;;;6281756;22;20197;-86
2021/07/25 02:13:02;;;;;;;18.83;7.90;;;;;;;;;;6284408;22;20288;-85
2021/07/25 02:16:08;;;;;;;13.80;7.55;;;;;;;;;;6266814;22;20225;-86
2021/07/25 02:19:13;;;;;;;12.45;7.55;;;;;;;;;;6282999;22;20173;-85
2021/07/25 02:22:20;;;;;;;16.40;7.90;;;;;;;;;;6284386;22;20336;-88
2021/07/25 02:25:25;;;;;;;17.50;8.43;;;;;;;;;;6284048;22;20560;-86
2021/07/25 02:28:30;;;;;;;13.68;7.95;;;;;;;;;;6281163;22;20154;-86
2021/07/25 02:31:35;;;;;;;13.82;7.68;;;;;;;;;;6282658;22;20166;-89
2021/07/25 02:34:41;;;;;;;15.35;8.20;;;;;;;;;;6283050;22;20530;-88
2021/07/25 02:37:47;;;;;;;16.98;8.63;;;;;;;;;;6282730;22;20161;-86
2021/07/25 02:40:52;;;;;;;15.63;9.05;;;;;;;;;;6289362;22;20193;-86
2021/07/25 02:43:57;;;;;;;18.60;9.00;;;;;;;;;;6282814;22;20169;-87
2021/07/25 02:47:02;;;;;;;18.67;8.32;;;;;;;;;;6282767;22;20268;-87
2021/07/25 02:50:08;;;;;;;17.45;9.25;;;;;;;;;;6281948;22;20220;-85
2021/07/25 02:53:15;;;;;;;16.98;8.65;;;;;;;;;;6282093;22;20177;-88
2021/07/25 02:56:20;;;;;;;19.67;8.80;;;;;;;;;;6283105;22;20169;-86
2021/07/25 02:59:25;;;;;;;20.10;9.18;;;;;;;;;;6279892;22;20170;-86
2021/07/25 03:02:30;;;;;;;17.38;9.35;;;;;;;;;;6281933;22;20264;-88
2021/07/25 03:05:34;;;;;;;22.23;9.45;;;;;;;;;;6282569;22;20613;-87
2021/07/25 03:08:40;;;;;;;14.25;8.25;;;;;;;;;;6282098;22;20169;-86
2021/07/25 03:11:45;;;;;;;16.95;8.63;;;;;;;;;;6264082;22;20240;-86
2021/07/25 03:14:50;;;;;;;16.70;8.30;;;;;;;;;;6283159;22;20181;-87
2021/07/25 03:17:55;;;;;;;21.67;8.95;;;;;;;;;;6283632;22;20181;-87
2021/07/25 03:21:00;;;;;;;18.10;9.02;;;;;;;;;;6282843;22;20200;-87
2021/07/25 03:24:06;;;;;;;16.02;8.98;;;;;;;;;;6284128;22;20233;-87
2021/07/25 03:27:11;;;;;;;17.48;8.88;;;;;;;;;;6264460;22;20173;-88
2021/07/25 03:30:16;;;;;;;16.45;8.23;;;;;;;;;;6282829;22;20626;-88
2021/07/25 03:33:21;;;;;;;21.05;9.55;;;;;;;;;;6282875;22;20234;-87
2021/07/25 03:36:26;;;;;;;20.73;9.25;;;;;;;;;;6282948;22;20174;-87
2021/07/25 03:39:33;;;;;;;16.83;9.32;;;;;;;;;;6265941;22;20185;-87
2021/07/25 03:42:38;;;;;;;17.42;8.90;;;;;;;;;;6284577;22;20622;-88
2021/07/25 03:45:44;;;;;;;17.73;9.57;;;;;;;;;;6284775;22;20165;-87
2021/07/25 03:48:49;;;;;;;18.85;9.38;;;;;;;;;;6282838;22;20178;-87
2021/07/25 03:51:54;;;;;;;20.10;8.80;;;;;;;;;;6285108;22;20171;-88
2021/07/25 03:55:00;;;;;;;17.92;9.00;;;;;;;;;;6284311;22;20506;-89
2021/07/25 03:58:05;;;;;;;18.52;9.05;;;;;;;;;;6286058;22;20170;-87
2021/07/25 04:01:12;;;;;;;16.33;8.65;;;;;;;;;;6281748;22;20169;-86
2021/07/25 04:04:18;;;;;;;15.40;8.77;;;;;;;;;;6286202;22;20503;-88
2021/07/25 04:07:24;;;;;;;16.35;8.75;;;;;;;;;;6284666;22;20169;-88
2021/07/25 04:10:31;;;;;;;23.08;10.02;;;;;;;;;;6265656;22;20209;-86
2021/07/25 04:13:36;;;;;;;18.55;10.18;;;;;;;;;;6266963;22;20216;-87
2021/07/25 04:16:41;;;;;;;20.08;9.45;;;;;;;;;;6267174;22;20209;-87
2021/07/25 04:19:46;;;;;;;21.30;10.40;;;;;;;;;;6285125;22;20292;-87
2021/07/25 04:22:51;;;;;;;18.00;9.65;;;;;;;;;;6265949;22;20194;-87
2021/07/25 04:25:57;;;;;;;16.63;8.90;;;;;;;;;;6283880;22;20281;-87
2021/07/25 04:29:02;;;;;;;17.83;10.00;;;;;;;;;;6283537;22;20693;-87
2021/07/25 04:32:07;;;;;;;17.63;10.10;;;;;;;;;;6283230;22;20208;-85
2021/07/25 04:35:13;;;;;;;19.60;9.45;;;;;;;;;;6265217;22;20173;-86
2021/07/25 04:38:18;;;;;;;20.63;9.90;;;;;;;;;;6282625;22;20170;-89
2021/07/25 04:41:26;;;;;;;18.05;9.70;;;;;;;;;;6264864;22;20254;-88
2021/07/25 04:44:33;;;;;;;17.70;8.90;;;;;;;;;;6285856;22;20281;-88
2021/07/25 04:47:42;;;;;;;18.45;9.43;;;;;;;;;;6283977;22;20170;-88
2021/07/25 04:50:52;;;;;;;16.23;8.90;;;;;;;;;;6283984;22;20505;-86
2021/07/25 04:54:00;;;;;;;16.88;9.27;;;;;;;;;;6282963;22;20180;-89
2021/07/25 04:57:08;;;;;;;17.10;8.80;;;;;;;;;;6267128;22;20169;-89
2021/07/25 05:00:16;;;;;;;15.82;8.30;;;;;;;;;;6285031;22;20557;-87
2021/07/25 05:03:21;;;;;;;13.95;8.43;;;;;;;;;;6268535;22;20189;-87
2021/07/25 05:06:27;;;;;;;17.20;7.93;;;;;;;;;;6285109;22;20240;-87
2021/07/25 05:09:32;;;;;;;17.40;8.60;;;;;;;;;;6285247;22;20173;-87
2021/07/25 05:12:41;;;;;;;14.20;8.32;;;;;;;;;;6284677;22;20153;-88
2021/07/25 05:15:47;;;;;;;13.73;7.97;;;;;;;;;;6268670;22;20153;-88
2021/07/25 05:18:57;;;;;;;14.18;7.90;;;;;;;;;;6285380;22;20170;-88
2021/07/25 05:22:06;;;;;;;13.18;8.05;;;;;;;;;;6285579;22;20190;-89
2021/07/25 05:25:11;;;;;;;19.08;8.30;;;;;;;;;;6284271;22;20174;-86
2021/07/25 05:28:19;;;;;;;16.48;8.02;;;;;;;;;;6269214;22;20196;-86
2021/07/25 05:31:27;;;;;;;13.80;8.43;;;;;;;;;;6287325;22;20166;-88
2021/07/25 05:34:32;;;;;;;14.00;7.90;;;;;;;;;;6267718;22;20177;-87
2021/07/25 05:37:37;;;;;;;13.77;7.57;;;;;;;;;;6282535;22;20173;-86
2021/07/25 05:40:42;;;;;;;15.40;7.57;;;;;;;;;;6266098;22;20220;-87
2021/07/25 05:43:49;;;;;;;13.82;7.63;;;;;;;;;;6285809;22;20166;-88
2021/07/25 05:46:54;;;;;;;13.38;7.53;;;;;;;;;;6266669;22;20170;-87
2021/07/25 05:49:59;;;;;;;13.50;7.50;;;;;;;;;;6285783;22;20212;-88
2021/07/25 05:53:05;;;;;;;15.80;7.70;;;;;;;;;;6286420;22;20257;-87
2021/07/25 05:56:10;;;;;;;14.15;6.95;;;;;;;;;;6285911;22;20165;-89
2021/07/25 05:59:17;;;;;;;11.88;7.25;;;;;;;;;;6285446;22;20246;-88
2021/07/25 06:02:22;;;;;;;13.77;7.47;;;;;;;;;;6285188;22;20268;-88
2021/07/25 06:05:27;;;;;;;14.05;6.32;;;;;;;;;;6265868;22;20501;-89
2021/07/25 06:08:32;;;;;;;11.10;6.50;;;;;;;;;;6283051;22;20169;-88
2021/07/25 06:11:38;;;;;;;14.38;7.43;;;;;;;;;;6267568;22;20217;-88
2021/07/25 06:14:45;;;;;;;16.48;7.43;;;;;;;;;;6283169;22;20170;-87
2021/07/25 06:17:50;;;;;;;14.45;6.80;;;;;;;;;;6265829;22;20240;-88
2021/07/25 06:20:55;;;;;;;12.32;7.30;;;;;;;;;;6283867;22;20173;-88
2021/07/25 06:24:01;;;;;;;16.02;7.75;;;;;;;;;;6268022;22;20176;-88
2021/07/25 06:27:05;;;;;;;13.85;7.40;;;;;;;;;;6267721;22;20224;-87
2021/07/25 06:30:12;;;;;;;14.52;6.85;;;;;;;;;;6285359;22;20525;-87
2021/07/25 06:33:17;;;;;;;13.75;6.88;;;;;;;;;;6266401;22;20162;-87
2021/07/25 06:36:24;;;;;;;13.25;7.57;;;;;;;;;;6285836;22;20185;-86
2021/07/25 06:39:29;;;;;;;13.10;6.78;;;;;;;;;;6287812;22;20171;-87
2021/07/25 06:42:34;;;;;;;14.43;6.80;;;;;;;;;;6285016;22;20516;-88
2021/07/25 06:45:41;;;;;;;17.52;6.72;;;;;;;;;;6286650;22;20153;-87
2021/07/25 06:48:46;;;;;;;14.35;6.72;;;;;;;;;;6283045;22;20174;-89
2021/07/25 06:51:51;;;;;;;14.50;7.03;;;;;;;;;;6285807;22;20181;-89
2021/07/25 06:54:56;;;;;;;15.18;6.63;;;;;;;;;;6285664;22;20344;-87
2021/07/25 06:58:01;;;;;;;16.85;7.10;;;;;;;;;;6286386;22;20169;-89
2021/07/25 07:01:08;;;;;;;11.65;6.70;;;;;;;;;;6268581;22;20169;-87
2021/07/25 07:04:13;;;;;;;13.15;6.90;;;;;;;;;;6286766;22;20292;-87
2021/07/25 07:07:19;;;;;;;13.75;7.22;;;;;;;;;;6288649;22;20169;-87
2021/07/25 07:10:25;;;;;;;12.25;7.60;;;;;;;;;;6287629;22;20213;-89
2021/07/25 07:13:31;;;;;;;15.93;8.70;;;;;;;;;;6268267;22;20166;-85
2021/07/25 07:16:37;;;;;;;16.67;7.32;;;;;;;;;;6267501;22;20224;-87
2021/07/25 07:19:42;;;;;;;16.13;7.00;;;;;;;;;;6289383;22;20277;-86
2021/07/25 07:22:52;;;;;;;20.27;8.18;;;;;;;;;;6288256;22;20559;-88
2021/07/25 07:25:57;;;;;;;18.25;8.55;;;;;;;;;;6289604;22;20173;-87
2021/07/25 07:29:01;;;;;;;16.05;7.60;;;;;;;;;;6286713;22;20619;-86
2021/07/25 07:32:09;;;;;;;14.68;7.00;;;;;;;;;;6271856;22;20174;-88
2021/07/25 07:35:15;;;;;;;15.73;7.05;;;;;;;;;;6291839;22;20297;-87
2021/07/25 07:38:21;;;;;;;11.43;6.20;;;;;;;;;;6289351;22;20162;-86
2021/07/25 07:41:26;;;;;;;12.90;6.78;;;;;;;;;;6288517;22;20170;-87
2021/07/25 07:44:33;;;;;;;22.85;11.48;;;;;;;;;;6295939;22;20169;-86
2021/07/25 07:47:40;;;;;;;14.93;7.57;;;;;;;;;;6292773;22;20170;-88
2021/07/25 07:50:46;;;;;;;15.55;7.05;;;;;;;;;;6289748;22;20174;-87
2021/07/25 07:53:51;;;;;;;12.18;6.75;;;;;;;;;;6289129;22;20196;-87
2021/07/25 07:56:56;;;;;;;9.10;6.25;;;;;;;;;;6287612;22;20212;-88
2021/07/25 08:00:01;;;;;;;12.00;6.43;;;;;;;;;;6288156;22;20169;-87
2021/07/25 08:03:08;;;;;;;15.15;6.93;;;;;;;;;;6288594;22;20644;-88
2021/07/25 08:06:12;;;;;;;12.98;6.82;;;;;;;;;;6288895;22;20704;-89
2021/07/25 08:09:18;;;;;;;10.40;6.47;;;;;;;;;;6270323;22;20173;-87
2021/07/25 08:12:23;;;;;;;12.90;6.57;;;;;;;;;;6288585;22;20173;-89
2021/07/25 08:15:28;;;;;;;14.65;6.90;;;;;;;;;;6287260;22;20169;-88
2021/07/25 08:18:34;;;;;;;14.05;6.93;;;;;;;;;;6287936;22;20162;-88
2021/07/25 08:21:40;;;;;;;10.13;6.50;;;;;;;;;;6286205;22;20220;-87
2021/07/25 08:24:46;;;;;;;11.25;6.60;;;;;;;;;;6287350;22;20246;-87
2021/07/25 08:27:51;;;;;;;12.30;6.32;;;;;;;;;;6287772;22;20236;-88
2021/07/25 08:30:56;;;;;;;13.90;6.72;;;;;;;;;;6287669;22;20242;-88
2021/07/25 08:34:03;;;;;;;21.15;6.18;;;;;;;;;;6289019;22;20280;-88
2021/07/25 08:37:08;;;;;;;17.63;8.07;;;;;;;;;;6288339;22;20233;-88
2021/07/25 08:40:15;;;;;;;16.77;6.60;;;;;;;;;;6287235;22;20170;-88
2021/07/25 08:43:21;;;;;;;14.73;6.28;;;;;;;;;;6287889;22;20190;-88
2021/07/25 08:46:27;;;;;;;11.70;5.72;;;;;;;;;;6269884;22;20235;-88
2021/07/25 08:49:35;;;;;;;8.43;5.43;;;;;;;;;;6287772;22;20492;-86
2021/07/25 08:52:43;;;;;;;10.32;6.10;;;;;;;;;;6286945;22;20177;-87
2021/07/25 08:55:48;;;;;;;14.10;5.80;;;;;;;;;;6286662;22;20164;-89
2021/07/25 08:58:57;;;;;;;8.70;5.47;;;;;;;;;;6287071;22;20173;-89
2021/07/25 09:02:02;;;;;;;14.65;6.00;;;;;;;;;;6286976;22;20165;-88
2021/07/25 09:05:10;;;;;;;11.40;5.90;;;;;;;;;;6288444;22;20489;-88
2021/07/25 09:08:19;;;;;;;13.10;5.57;;;;;;;;;;6284895;22;20165;-87
2021/07/25 09:11:24;;;;;;;9.25;5.65;;;;;;;;;;6288046;22;20613;-87
2021/07/25 09:14:29;;;;;;;11.05;5.68;;;;;;;;;;6287855;22;20296;-87
2021/07/25 09:17:34;;;;;;;10.77;5.60;;;;;;;;;;6287311;22;20184;-89
2021/07/25 09:20:41;;;;;;;9.13;5.55;;;;;;;;;;6286497;22;20173;-87
2021/07/25 09:23:48;;;;;;;9.48;5.80;;;;;;;;;;6271906;22;20188;-87
2021/07/25 09:26:57;;;;;;;8.73;5.50;;;;;;;;;;6287398;22;20185;-88
2021/07/25 09:30:17;;;;;;;12.52;5.38;;;;;;;;;;6286070;22;20187;-88
2021/07/25 09:33:23;;;;;;;10.13;5.30;;;;;;;;;;6288728;22;20165;-89
2021/07/25 09:40:00;;;;;;;7.57;5.07;;;;;;;;;;6271186;22;20192;-87
2021/07/25 09:43:09;;;;;;;8.68;5.32;;;;;;;;;;6287078;22;20160;-87
2021/07/25 09:46:16;;;;;;;8.75;4.85;;;;;;;;;;6290635;22;20171;-89
2021/07/25 09:49:21;;;;;;;7.50;4.75;;;;;;;;;;6272491;22;20234;-89
2021/07/25 09:52:31;;;;;;;6.82;4.70;;;;;;;;;;6290564;22;20185;-90
2021/07/25 09:55:39;;;;;;;6.57;4.50;;;;;;;;;;6273286;22;20247;-89
2021/07/25 09:58:44;;;;;;;9.57;4.95;;;;;;;;;;6253719;22;20165;-89
2021/07/25 10:01:50;;;;;;;8.85;4.75;;;;;;;;;;6289025;22;20169;-89
2021/07/25 10:05:06;;;;;;;5.20;4.13;;;;;;;;;;6271171;22;20247;-88
2021/07/25 10:08:16;;;;;;;10.98;4.65;;;;;;;;;;6289205;22;20150;-88
2021/07/25 10:11:26;;;;;;;8.70;4.30;;;;;;;;;;6290241;22;20161;-89
2021/07/25 10:14:33;;;;;;;7.82;4.80;;;;;;;;;;6270527;22;20266;-88
2021/07/25 10:17:41;;;;;;;9.48;5.03;;;;;;;;;;6288497;22;20169;-89
2021/07/25 10:20:46;;;;;;;9.98;4.72;;;;;;;;;;6286222;22;20173;-88
2021/07/25 10:23:56;;;;;;;8.55;4.82;;;;;;;;;;6287448;22;20162;-88
2021/07/25 10:27:03;;;;;;;10.63;4.20;;;;;;;;;;6268715;22;20165;-89
2021/07/25 10:30:09;;;;;;;8.25;4.05;;;;;;;;;;6285750;22;20189;-89
2021/07/25 10:33:15;;;;;;;7.35;4.30;;;;;;;;;;6288558;22;20241;-89
2021/07/25 10:36:20;;;;;;;8.60;4.03;;;;;;;;;;6286683;22;20164;-88
2021/07/25 10:39:28;;;;;;;6.18;4.00;;;;;;;;;;6289116;22;20150;-87
2021/07/25 10:42:37;;;;;;;8.25;4.43;;;;;;;;;;6251626;22;20234;-88
2021/07/25 10:45:42;;;;;;;10.45;5.13;;;;;;;;;;6286453;22;20169;-88
2021/07/25 10:49:09;;;;;;;7.40;4.95;;;;;;;;;;6269393;22;20197;-89
2021/07/25 10:52:14;;;;;;;8.75;5.10;;;;;;;;;;6266442;22;20165;-87
2021/07/25 10:55:34;;;;;;;7.55;4.70;;;;;;;;;;6286282;22;20224;-88
2021/07/25 10:58:54;;;;;;;8.00;4.70;;;;;;;;;;6267771;22;20181;-90
2021/07/25 11:01:59;;;;;;;6.32;4.70;;;;;;;;;;6286952;22;20491;-87
2021/07/25 11:05:06;;;;;;;7.72;4.32;;;;;;;;;;6268501;22;20504;-89
2021/07/25 11:08:32;;;;;;;9.77;4.88;;;;;;;;;;6287800;22;20191;-89
2021/07/25 11:11:55;;;;;;;8.55;4.70;;;;;;;;;;6270228;22;20168;-88
2021/07/25 11:15:02;;;;;;;10.25;4.90;;;;;;;;;;6290140;22;20659;-88
2021/07/25 11:18:08;;;;;;;9.82;3.95;;;;;;;;;;6271162;22;20241;-89
2021/07/25 11:21:31;;;;;;;8.20;4.75;;;;;;;;;;6289325;22;20156;-87
2021/07/25 11:24:49;;;;;;;9.05;4.40;;;;;;;;;;6282621;22;20619;-87
2021/07/25 11:27:54;;;;;;;10.20;5.07;;;;;;;;;;6269926;22;20601;-90
2021/07/25 11:31:19;;;;;;;7.60;4.25;;;;;;;;;;6271478;22;20157;-88
2021/07/25 11:34:28;;;;;;;7.05;4.47;;;;;;;;;;6290415;22;20189;-89
2021/07/25 11:37:38;;;;;;;6.13;3.92;;;;;;;;;;6275683;22;20165;-87
2021/07/25 11:40:44;;;;;;;10.02;4.32;;;;;;;;;;6292482;22;20161;-86
2021/07/25 11:43:50;;;;;;;8.35;4.07;;;;;;;;;;6273571;22;20493;-88
2021/07/25 11:46:57;;;;;;;9.38;3.63;;;;;;;;;;6272159;22;20161;-90
2021/07/25 11:50:03;;;;;;;7.15;4.10;;;;;;;;;;6289856;22;20170;-89
2021/07/25 19:32:03;;;;;;;13.15;5.80;;;;;;;;;;6273721;22;20210;-88
2021/07/25 19:35:10;;;;;;;8.57;4.47;;;;;;;;;;6288631;22;20231;-89
2021/07/25 19:38:15;;;;;;;10.20;5.38;;;;;;;;;;6289785;22;20222;-88
2021/07/25 19:41:20;;;;;;;10.80;4.93;;;;;;;;;;6291802;22;20232;-89
2021/07/25 19:44:27;;;;;;;9.23;5.40;;;;;;;;;;6292462;22;20170;-87
2021/07/25 19:47:34;;;;;;;9.82;5.38;;;;;;;;;;6270667;22;20173;-89
2021/07/25 19:50:39;;;;;;;10.50;5.55;;;;;;;;;;6290603;22;20174;-88
2021/07/25 19:57:11;;;;;;;10.00;5.20;;;;;;;;;;6282338;22;20153;-89
2021/07/25 20:00:17;;;;;;;11.40;5.40;;;;;;;;;;6273205;22;20218;-89
2021/07/25 20:03:26;;;;;;;8.95;4.90;;;;;;;;;;6275337;22;20173;-88
2021/07/25 20:06:36;;;;;;;19.63;10.00;;;;;;;;;;6298052;22;20166;-87
2021/07/25 20:09:41;;;;;;;10.95;5.90;;;;;;;;;;6275357;22;20238;-89
2021/07/25 20:12:46;;;;;;;10.15;5.30;;;;;;;;;;6291100;22;20173;-89
2021/07/25 20:15:52;;;;;;;12.57;5.90;;;;;;;;;;6271520;22;20189;-87
2021/07/25 20:18:59;;;;;;;10.25;4.80;;;;;;;;;;6271617;22;20213;-92
2021/07/25 20:22:04;;;;;;;10.13;4.97;;;;;;;;;;6288372;22;20620;-88
2021/07/25 20:25:10;;;;;;;11.43;5.78;;;;;;;;;;6286651;22;20170;-88
2021/07/25 20:28:15;;;;;;;10.10;5.63;;;;;;;;;;6284949;22;20170;-87
2021/07/25 20:31:20;;;;;;;10.50;6.10;;;;;;;;;;6284934;22;20193;-88
2021/07/25 20:34:27;;;;;;;15.15;6.72;;;;;;;;;;6286594;22;20210;-89
2021/07/25 20:37:32;;;;;;;11.52;6.50;;;;;;;;;;6285398;22;20169;-89
2021/07/25 20:40:39;;;;;;;14.68;6.13;;;;;;;;;;6285284;22;20166;-88
2021/07/25 20:43:43;;;;;;;10.25;5.20;;;;;;;;;;6284541;22;20236;-90
2021/07/25 20:46:49;;;;;;;10.40;5.13;;;;;;;;;;6287630;22;20185;-88
2021/07/25 20:49:55;;;;;;;13.75;5.47;;;;;;;;;;6288879;22;20161;-88
2021/07/25 20:53:02;;;;;;;9.48;4.93;;;;;;;;;;6288013;22;20166;-88
2021/07/25 20:56:07;;;;;;;8.00;5.18;;;;;;;;;;6270738;22;20194;-89
2021/07/25 20:59:13;;;;;;;10.35;4.93;;;;;;;;;;6289280;22;20169;-87
2021/07/25 21:02:18;;;;;;;12.48;5.50;;;;;;;;;;6271500;22;20261;-87
2021/07/25 21:05:25;;;;;;;16.70;5.38;;;;;;;;;;6270305;22;20169;-87
2021/07/25 21:08:30;;;;;;;9.57;5.10;;;;;;;;;;6288067;22;20230;-88
2021/07/25 21:11:35;;;;;;;11.23;5.65;;;;;;;;;;6288633;22;20165;-89
2021/07/25 21:14:40;;;;;;;12.68;5.38;;;;;;;;;;6287967;22;20190;-88
2021/07/25 21:17:46;;;;;;;10.45;6.28;;;;;;;;;;6287365;22;20679;-86
2021/07/25 21:20:53;;;;;;;8.50;5.35;;;;;;;;;;6287728;22;20165;-89
2021/07/25 21:23:58;;;;;;;9.43;5.60;;;;;;;;;;6287801;22;20304;-89
2021/07/25 21:27:05;;;;;;;12.30;5.53;;;;;;;;;;6288709;22;20173;-88
2021/07/25 21:30:10;;;;;;;11.38;5.53;;;;;;;;;;6271132;22;20226;-89
2021/07/25 21:33:15;;;;;;;12.48;5.78;;;;;;;;;;6265452;22;20288;-88
2021/07/25 21:36:22;;;;;;;10.88;5.80;;;;;;;;;;6285239;22;20158;-88
2021/07/25 21:39:27;;;;;;;12.52;5.50;;;;;;;;;;6284943;22;20274;-88
2021/07/25 21:42:32;;;;;;;14.55;7.43;;;;;;;;;;6267068;22;20647;-88
2021/07/25 21:45:37;;;;;;;12.10;6.40;;;;;;;;;;6268792;22;20616;-87
2021/07/25 21:48:45;;;;;;;15.45;7.43;;;;;;;;;;6268574;22;20244;-87
2021/07/25 21:51:55;;;;;;;12.27;6.85;;;;;;;;;;6269464;22;20170;-87
2021/07/25 21:55:00;;;;;;;11.95;7.07;;;;;;;;;;6287227;22;20220;-89
2021/07/25 21:58:05;;;;;;;13.77;7.15;;;;;;;;;;6270523;22;20188;-89
2021/07/25 22:01:23;;;;;;;11.77;6.68;;;;;;;;;;6287388;22;20166;-89
2021/07/25 22:04:39;;;;;;;10.63;6.43;;;;;;;;;;6270018;22;20609;-87
2021/07/25 22:07:50;;;;;;;10.82;6.10;;;;;;;;;;6288353;22;20170;-88
2021/07/25 22:10:56;;;;;;;10.10;6.53;;;;;;;;;;6271083;22;20166;-88
2021/07/25 22:14:02;;;;;;;11.98;5.90;;;;;;;;;;6261385;22;20216;-88
2021/07/25 22:17:08;;;;;;;11.35;6.50;;;;;;;;;;6287901;22;20269;-88
2021/07/25 22:20:14;;;;;;;12.23;6.95;;;;;;;;;;6286090;22;20632;-87
2021/07/25 22:23:21;;;;;;;16.33;6.85;;;;;;;;;;6286256;22;20252;-88
2021/07/25 22:26:26;;;;;;;13.48;6.25;;;;;;;;;;6286951;22;20242;-89
2021/07/25 22:29:31;;;;;;;13.07;6.05;;;;;;;;;;6269713;22;20170;-88
2021/07/25 22:32:36;;;;;;;14.77;6.60;;;;;;;;;;6286755;22;20566;-89
2021/07/25 22:35:41;;;;;;;12.00;6.47;;;;;;;;;;6270949;22;20694;-87
2021/07/25 22:38:48;;;;;;;14.20;6.45;;;;;;;;;;6287541;22;20169;-88
2021/07/25 22:41:53;;;;;;;15.40;6.07;;;;;;;;;;6268332;22;20244;-89
2021/07/25 22:45:01;;;;;;;13.50;6.53;;;;;;;;;;6287355;22;20272;-88
2021/07/25 22:48:09;;;;;;;11.20;6.05;;;;;;;;;;6288131;22;20205;-89
2021/07/25 22:51:15;;;;;;;15.65;6.13;;;;;;;;;;6288648;22;20169;-88
2021/07/25 22:54:23;;;;;;;12.25;6.55;;;;;;;;;;6288738;22;20177;-90
2021/07/25 22:57:31;;;;;;;14.02;7.80;;;;;;;;;;6286631;22;20296;-87
2021/07/25 23:00:38;;;;;;;14.43;6.68;;;;;;;;;;6287377;22;20170;-88
2021/07/25 23:03:44;;;;;;;13.93;6.88;;;;;;;;;;6287470;22;20174;-88
2021/07/25 23:06:49;;;;;;;10.73;6.40;;;;;;;;;;6287437;22;20926;-87
2021/07/25 23:09:56;;;;;;;18.40;7.03;;;;;;;;;;6287664;22;20265;-89
2021/07/25 23:13:01;;;;;;;11.82;6.15;;;;;;;;;;6267648;22;20170;-88
2021/07/25 23:16:06;;;;;;;9.90;5.93;;;;;;;;;;6269086;22;20174;-89
2021/07/25 23:19:12;;;;;;;11.52;6.00;;;;;;;;;;6287002;22;20234;-88
2021/07/25 23:22:16;;;;;;;11.27;6.70;;;;;;;;;;6286720;22;20173;-88
2021/07/25 23:25:23;;;;;;;16.75;7.40;;;;;;;;;;6287016;22;20165;-87
2021/07/25 23:28:28;;;;;;;14.65;7.93;;;;;;;;;;6268353;22;20197;-88
2021/07/25 23:31:33;;;;;;;13.90;8.40;;;;;;;;;;6269865;22;20190;-89
2021/07/25 23:34:39;;;;;;;14.55;8.77;;;;;;;;;;6288422;22;20165;-91
2021/07/25 23:37:44;;;;;;;16.63;9.48;;;;;;;;;;6288175;22;20174;-89
2021/07/25 23:40:50;;;;;;;18.08;10.43;;;;;;;;;;6288397;22;20222;-90
2021/07/25 23:43:56;;;;;;;19.95;9.60;;;;;;;;;;6270982;22;20189;-87
2021/07/25 23:47:01;;;;;;;17.38;9.82;;;;;;;;;;6268167;22;20279;-90
2021/07/25 23:50:08;;;;;;;19.75;9.88;;;;;;;;;;6287491;22;20161;-88
2021/07/25 23:53:13;;;;;;;26.38;10.43;;;;;;;;;;6287680;22;20166;-89
2021/07/25 23:56:20;;;;;;;19.27;10.25;;;;;;;;;;6286458;22;20212;-89
2021/07/25 23:59:25;;;;;;;19.63;10.23;;;;;;;;;;6287551;22;20489;-89
